Terminal Aerodrome Forecast
Issued by NWS

Home | Current Version | Previous Version | Text Only | Print | Product List | Glossary Off
Versions: 1 2 3 4 5 6 7 8 9 10 11 12 13

000
FTUS43 KMPX 302335
TAFAXN
TAF
KAXN 302335Z 3100/3124 13007KT P6SM SCT200
      TEMPO 3110/3112 5SM BR SCT010
     FM311400 16009KT P6SM SCT030=

USA.gov is the U.S. government's official web portal to all federal, state and local government web resources and services.